createdAt,value
2022-11-19T00:02:00.357Z,4.83
2022-11-19T00:06:07.583Z,3.97
2022-11-19T00:10:11.261Z,4.83
2022-11-19T00:14:12.743Z,5.00
2022-11-19T00:18:13.251Z,4.90
2022-11-19T00:22:13.790Z,5.67
2022-11-19T00:26:18.054Z,5.00
2022-11-19T00:30:40.951Z,5.37
2022-11-19T00:34:39.413Z,5.60
2022-11-19T00:38:40.301Z,5.93
2022-11-19T00:43:03.077Z,6.23
2022-11-19T00:47:03.327Z,6.33
2022-11-19T00:51:04.393Z,5.93
2022-11-19T00:55:04.737Z,6.10
2022-11-19T00:59:08.022Z,6.23
2022-11-19T01:03:08.547Z,6.47
2022-11-19T01:07:08.981Z,6.10
2022-11-19T01:11:11.616Z,6.80
2022-11-19T01:15:14.586Z,6.50
2022-11-19T01:19:17.163Z,6.23
2022-11-19T01:23:17.733Z,6.67
2022-11-19T01:27:17.995Z,6.60
2022-11-19T01:31:24.485Z,6.60
2022-11-19T01:35:24.613Z,6.50
2022-11-19T01:39:24.647Z,6.63
2022-11-19T01:43:43.775Z,6.47
2022-11-19T01:47:46.633Z,7.40
2022-11-19T01:51:54.313Z,7.57
2022-11-19T01:55:55.403Z,7.70
2022-11-19T01:59:55.987Z,7.70
2022-11-19T02:04:00.792Z,8.47
2022-11-19T02:08:01.993Z,8.53
2022-11-19T02:12:25.183Z,8.63
2022-11-19T02:16:34.407Z,8.80
2022-11-19T02:21:08.952Z,8.90
2022-11-19T02:25:26.085Z,9.37
2022-11-19T02:30:07.780Z,9.53
2022-11-19T02:34:17.396Z,9.93
2022-11-19T02:38:30.768Z,10.97
2022-11-19T02:42:38.071Z,10.50
2022-11-19T02:46:41.853Z,11.23
2022-11-19T02:50:49.214Z,12.33
2022-11-19T02:54:49.292Z,12.70
2022-11-19T02:59:07.839Z,13.37
2022-11-19T03:03:30.637Z,14.10
2022-11-19T03:07:32.750Z,13.80
2022-11-19T03:11:35.766Z,13.80
2022-11-19T03:16:02.057Z,13.57
2022-11-19T03:20:18.780Z,13.70
2022-11-19T03:24:26.146Z,14.97
2022-11-19T03:28:32.915Z,14.57
2022-11-19T03:32:39.744Z,14.63
2022-11-19T03:36:46.485Z,14.70
2022-11-19T03:40:47.705Z,14.20
2022-11-19T03:44:52.949Z,13.53
2022-11-19T03:48:57.569Z,13.07
2022-11-19T03:53:04.594Z,13.97
2022-11-19T03:57:08.385Z,13.87
2022-11-19T04:01:08.909Z,13.17
2022-11-19T04:05:10.018Z,12.40
2022-11-19T04:09:12.723Z,13.07
2022-11-19T04:13:12.876Z,13.57
2022-11-19T04:17:13.822Z,13.93
2022-11-19T04:21:13.971Z,13.47
2022-11-19T04:25:16.829Z,12.07
2022-11-19T04:29:17.321Z,12.03
2022-11-19T04:33:17.775Z,12.53
2022-11-19T04:37:17.921Z,11.77
2022-11-19T04:41:20.620Z,12.40
2022-11-19T04:45:20.763Z,12.33
2022-11-19T04:49:21.092Z,13.10
2022-11-19T04:53:21.626Z,12.67
2022-11-19T04:57:24.441Z,13.00
2022-11-19T05:01:24.828Z,14.27
2022-11-19T05:05:25.021Z,14.80
2022-11-19T05:09:25.368Z,14.70
2022-11-19T05:13:28.386Z,14.33
2022-11-19T05:17:28.549Z,15.73
2022-11-19T05:21:28.907Z,14.63
2022-11-19T05:25:29.161Z,14.30
2022-11-19T05:29:31.958Z,14.33
2022-11-19T05:33:34.318Z,14.37
2022-11-19T05:37:34.867Z,14.63
2022-11-19T05:41:34.973Z,14.97
2022-11-19T05:45:37.874Z,14.83
2022-11-19T05:49:38.043Z,14.40
2022-11-19T05:53:38.144Z,13.90
2022-11-19T05:57:38.226Z,14.37
2022-11-19T06:01:40.981Z,13.23
2022-11-19T06:05:41.142Z,20.20
2022-11-19T06:09:41.306Z,13.33
2022-11-19T06:13:41.335Z,14.47
2022-11-19T06:17:44.372Z,13.67
2022-11-19T06:21:44.484Z,13.63
2022-11-19T06:25:44.920Z,13.73
2022-11-19T06:29:45.031Z,14.90
2022-11-19T06:33:47.914Z,14.23
2022-11-19T06:37:48.024Z,14.33
2022-11-19T06:41:48.814Z,13.77
2022-11-19T06:45:49.083Z,13.70
2022-11-19T06:49:51.733Z,13.43
2022-11-19T06:53:51.960Z,13.83
2022-11-19T06:57:52.219Z,14.67
2022-11-19T07:01:52.381Z,15.33
2022-11-19T07:06:01.891Z,17.57
2022-11-19T07:10:01.931Z,15.77
2022-11-19T07:14:03.746Z,16.20
2022-11-19T07:18:05.308Z,14.97
2022-11-19T07:22:08.112Z,15.43
2022-11-19T07:26:08.631Z,15.30
2022-11-19T07:30:11.689Z,14.90
2022-11-19T07:34:13.685Z,14.07
2022-11-19T07:38:16.378Z,14.50
2022-11-19T07:42:37.472Z,15.23
2022-11-19T07:46:41.747Z,16.20
2022-11-19T07:50:41.881Z,15.73
2022-11-19T07:54:44.639Z,24.93
2022-11-19T07:58:45.151Z,16.13
2022-11-19T08:02:45.328Z,16.90
2022-11-19T08:06:45.497Z,14.10
2022-11-19T08:10:48.204Z,14.93
2022-11-19T08:14:48.287Z,14.80
2022-11-19T08:18:48.398Z,15.57
2022-11-19T08:22:48.436Z,15.10
2022-11-19T08:26:51.940Z,15.07
2022-11-19T08:30:52.288Z,15.57
2022-11-19T08:34:52.529Z,15.90
2022-11-19T08:38:52.711Z,15.23
2022-11-19T08:43:04.324Z,15.50
2022-11-19T08:47:04.494Z,15.87
2022-11-19T08:51:07.315Z,14.70
2022-11-19T08:55:09.145Z,15.03
2022-11-19T08:59:12.235Z,17.43
2022-11-19T09:03:12.795Z,13.87
2022-11-19T09:07:13.137Z,15.33
2022-11-19T09:11:16.239Z,15.07
2022-11-19T09:15:19.152Z,13.43
2022-11-19T09:19:19.241Z,15.00
2022-11-19T09:23:19.294Z,14.97
2022-11-19T09:27:19.380Z,14.33
2022-11-19T09:31:23.590Z,14.50
2022-11-19T09:35:23.778Z,14.07
2022-11-19T09:39:24.155Z,12.90
2022-11-19T09:43:44.977Z,14.27
2022-11-19T09:48:13.961Z,12.80
2022-11-19T09:52:20.135Z,13.07
2022-11-19T09:56:28.593Z,13.60
2022-11-19T10:00:32.431Z,13.80
2022-11-19T10:04:36.225Z,12.47
2022-11-19T10:08:58.949Z,14.07
2022-11-19T10:13:20.700Z,13.40
2022-11-19T10:17:36.680Z,13.73
2022-11-19T10:21:52.954Z,13.40
2022-11-19T10:25:59.137Z,13.90
2022-11-19T10:30:09.095Z,14.27
2022-11-19T10:34:19.563Z,14.37
2022-11-19T10:38:30.342Z,13.80
2022-11-19T10:42:38.611Z,13.63
2022-11-19T10:46:39.298Z,13.50
2022-11-19T10:50:39.817Z,13.43
2022-11-19T10:54:44.563Z,12.63
2022-11-19T10:58:52.731Z,13.27
2022-11-19T11:03:01.917Z,12.97
2022-11-19T11:07:04.976Z,13.53
2022-11-19T11:11:08.012Z,12.20
2022-11-19T11:15:15.806Z,13.23
2022-11-19T11:19:20.464Z,11.47
2022-11-19T11:23:25.441Z,12.73
2022-11-19T11:27:34.146Z,12.23
2022-11-19T11:31:38.760Z,12.73
2022-11-19T11:35:40.569Z,11.70
2022-11-19T11:39:44.511Z,12.73
2022-11-19T11:44:04.209Z,13.07
2022-11-19T11:48:10.849Z,13.60
2022-11-19T11:52:22.593Z,13.23
2022-11-19T11:56:24.502Z,14.03
2022-11-19T12:00:37.935Z,14.50
2022-11-19T12:04:38.645Z,13.20
2022-11-19T12:08:51.761Z,12.30
2022-11-19T12:13:26.136Z,12.57
2022-11-19T12:17:51.042Z,13.20
2022-11-19T12:22:06.179Z,13.37
2022-11-19T12:26:19.826Z,11.97
2022-11-19T12:30:24.123Z,12.13
2022-11-19T12:35:12.964Z,12.27
2022-11-19T12:39:35.591Z,12.00
2022-11-19T12:43:56.519Z,11.97
2022-11-19T12:48:34.938Z,10.93
2022-11-19T12:53:10.240Z,11.40
2022-11-19T12:57:27.946Z,12.20
2022-11-19T13:01:34.854Z,11.93
2022-11-19T13:05:47.736Z,11.93
2022-11-19T13:09:55.674Z,12.07
2022-11-19T13:14:02.978Z,12.03
2022-11-19T13:18:11.168Z,11.80
2022-11-19T13:22:20.488Z,12.53
2022-11-19T13:26:28.991Z,11.67
2022-11-19T13:30:32.199Z,11.80
2022-11-19T13:34:42.073Z,11.70
2022-11-19T13:38:49.730Z,13.07
2022-11-19T13:43:30.644Z,12.03
2022-11-19T13:47:32.276Z,12.17
2022-11-19T13:51:39.742Z,12.47
2022-11-19T13:55:44.238Z,12.67
2022-11-19T13:59:50.294Z,12.57
2022-11-19T14:04:13.373Z,13.23
2022-11-19T14:08:35.260Z,13.20
2022-11-19T14:13:09.501Z,12.40
2022-11-19T14:17:38.015Z,12.47
2022-11-19T14:22:11.718Z,12.67
2022-11-19T14:26:24.049Z,12.43
2022-11-19T14:31:08.291Z,12.03
2022-11-19T14:35:32.456Z,12.00
2022-11-19T14:39:41.405Z,11.53
2022-11-19T14:44:11.662Z,11.33
2022-11-19T14:48:11.819Z,10.90
2022-11-19T14:52:28.477Z,11.67
2022-11-19T14:56:28.984Z,11.40
2022-11-19T15:00:35.336Z,12.03
2022-11-19T15:04:41.159Z,12.00
2022-11-19T15:08:56.916Z,12.37
2022-11-19T15:13:36.597Z,12.13
2022-11-19T15:17:38.329Z,12.20
2022-11-19T15:22:24.991Z,13.13
2022-11-19T15:26:39.486Z,11.53
2022-11-19T15:31:14.525Z,12.50
2022-11-19T15:35:40.295Z,12.27
2022-11-19T15:39:48.074Z,11.63
2022-11-19T15:43:56.645Z,12.40
2022-11-19T15:48:13.164Z,12.67
2022-11-19T15:52:26.108Z,12.07
2022-11-19T15:56:26.815Z,12.00
2022-11-19T16:00:30.650Z,11.63
2022-11-19T16:04:39.038Z,11.90
2022-11-19T16:08:40.583Z,11.20
2022-11-19T16:12:53.131Z,11.47
2022-11-19T16:17:09.764Z,12.67
2022-11-19T16:21:09.931Z,11.63
2022-11-19T16:25:16.596Z,13.07
2022-11-19T16:29:22.529Z,12.50
2022-11-19T16:33:28.725Z,12.90
2022-11-19T16:37:29.417Z,13.40
2022-11-19T16:41:42.699Z,13.13
2022-11-19T16:45:48.355Z,12.83
2022-11-19T16:50:04.033Z,13.40
2022-11-19T16:54:06.025Z,14.43
2022-11-19T16:58:17.362Z,13.37
2022-11-19T17:02:20.887Z,13.47
2022-11-19T17:06:27.974Z,13.40
2022-11-19T17:10:34.729Z,13.27
2022-11-19T17:14:52.591Z,13.43
2022-11-19T17:18:54.152Z,12.27
2022-11-19T17:22:57.226Z,14.57
2022-11-19T17:26:57.396Z,13.43
2022-11-19T17:30:58.914Z,12.93
2022-11-19T17:34:59.060Z,13.67
2022-11-19T17:39:01.926Z,13.13
2022-11-19T17:43:15.745Z,13.77
2022-11-19T17:47:23.522Z,17.87
2022-11-19T17:51:27.891Z,15.67
2022-11-19T17:55:30.678Z,15.57
2022-11-19T17:59:30.782Z,14.80
2022-11-19T18:03:30.971Z,13.90
2022-11-19T18:07:32.593Z,14.73
2022-11-19T18:11:35.491Z,14.47
2022-11-19T18:15:35.573Z,13.63
2022-11-19T18:19:35.741Z,14.10
2022-11-19T18:23:35.897Z,14.40
2022-11-19T18:27:38.856Z,14.43
2022-11-19T18:31:45.771Z,13.27
2022-11-19T18:35:46.176Z,14.17
2022-11-19T18:39:46.598Z,19.07
2022-11-19T18:44:02.434Z,14.60
2022-11-19T18:48:02.659Z,14.80
2022-11-19T18:52:03.234Z,14.90
2022-11-19T18:56:03.332Z,15.20
2022-11-19T19:00:07.589Z,14.93
2022-11-19T19:04:14.363Z,14.77
2022-11-19T19:08:16.028Z,17.03
2022-11-19T19:12:22.328Z,16.07
2022-11-19T19:16:26.206Z,15.93
2022-11-19T19:20:26.953Z,17.30
2022-11-19T19:24:27.288Z,14.90
2022-11-19T19:28:27.794Z,15.13
2022-11-19T19:32:30.531Z,15.00
2022-11-19T19:36:31.021Z,16.27
2022-11-19T19:40:31.342Z,16.43
2022-11-19T19:44:31.783Z,14.00
2022-11-19T19:48:36.149Z,15.67
2022-11-19T19:52:36.332Z,14.90
2022-11-19T19:56:37.160Z,14.60
2022-11-19T20:00:37.409Z,14.50
2022-11-19T20:04:40.241Z,14.20
2022-11-19T20:08:41.634Z,16.27
2022-11-19T20:12:54.385Z,15.97
2022-11-19T20:16:56.214Z,15.20
2022-11-19T20:21:02.054Z,14.53
2022-11-19T20:25:02.243Z,15.37
2022-11-19T20:29:04.721Z,16.70
2022-11-19T20:33:05.185Z,15.33
2022-11-19T20:37:08.001Z,15.67
2022-11-19T20:41:31.506Z,16.27
2022-11-19T20:45:31.638Z,15.73
2022-11-19T20:49:34.971Z,16.07
2022-11-19T20:53:39.282Z,16.90
2022-11-19T20:57:39.880Z,16.23
2022-11-19T21:01:41.388Z,15.80
2022-11-19T21:05:41.818Z,15.60
2022-11-19T21:09:44.824Z,17.27
2022-11-19T21:13:45.827Z,16.80
2022-11-19T21:17:46.711Z,15.57
2022-11-19T21:21:47.293Z,17.47
2022-11-19T21:25:52.885Z,16.67
2022-11-19T21:29:53.083Z,16.27
2022-11-19T21:33:53.486Z,17.23
2022-11-19T21:37:53.753Z,17.47
2022-11-19T21:41:57.059Z,16.53
2022-11-19T21:45:58.130Z,16.67
2022-11-19T21:50:00.828Z,16.63
2022-11-19T21:54:02.139Z,16.57
2022-11-19T21:58:05.540Z,16.93
2022-11-19T22:02:05.691Z,17.30
2022-11-19T22:06:09.585Z,15.97
2022-11-19T22:10:10.987Z,16.60
2022-11-19T22:14:13.767Z,16.87
2022-11-19T22:18:13.913Z,17.10
2022-11-19T22:22:14.149Z,16.13
2022-11-19T22:26:16.086Z,15.70
2022-11-19T22:30:19.359Z,14.93
2022-11-19T22:34:19.544Z,16.00
2022-11-19T22:38:19.760Z,16.70
2022-11-19T22:42:19.925Z,16.00
2022-11-19T22:46:23.629Z,14.23
2022-11-19T22:50:23.779Z,16.23
2022-11-19T22:54:23.918Z,15.23
2022-11-19T22:58:24.050Z,15.47
2022-11-19T23:02:26.884Z,17.07
2022-11-19T23:06:27.865Z,15.93
2022-11-19T23:10:28.125Z,16.33
2022-11-19T23:14:30.025Z,15.90
2022-11-19T23:18:35.012Z,17.03
2022-11-19T23:22:35.084Z,16.63
2022-11-19T23:26:36.582Z,16.77
2022-11-19T23:30:37.081Z,16.50
2022-11-19T23:34:39.767Z,16.67
2022-11-19T23:38:41.159Z,17.17
2022-11-19T23:42:41.362Z,17.30
2022-11-19T23:46:42.429Z,17.70
2022-11-19T23:50:45.099Z,16.57
2022-11-19T23:54:45.184Z,16.83
2022-11-19T23:58:45.690Z,16.70
